createdAt,value
2022-07-27T00:01:34.368Z,15.54
2022-07-27T00:05:39.756Z,15.46
2022-07-27T00:09:42.799Z,15.53
2022-07-27T00:13:46.230Z,15.46
2022-07-27T00:17:51.167Z,15.44
2022-07-27T00:21:54.621Z,15.43
2022-07-27T00:25:57.864Z,15.37
2022-07-27T00:30:00.961Z,15.33
2022-07-27T00:34:05.387Z,15.29
2022-07-27T00:38:08.578Z,15.28
2022-07-27T00:42:11.773Z,15.25
2022-07-27T00:46:15.700Z,15.12
2022-07-27T00:50:20.164Z,15.03
2022-07-27T00:54:24.181Z,14.96
2022-07-27T00:58:28.207Z,14.90
2022-07-27T01:02:32.164Z,14.80
2022-07-27T01:06:38.143Z,14.72
2022-07-27T01:10:41.912Z,14.56
2022-07-27T01:14:45.149Z,14.43
2022-07-27T01:18:48.250Z,14.30
2022-07-27T01:22:52.770Z,14.25
2022-07-27T01:26:56.222Z,14.11
2022-07-27T01:30:59.375Z,13.97
2022-07-27T01:35:02.550Z,13.86
2022-07-27T01:39:06.991Z,13.73
2022-07-27T01:43:10.060Z,13.63
2022-07-27T01:47:14.075Z,13.52
2022-07-27T01:51:17.989Z,13.43
2022-07-27T01:55:22.465Z,13.29
2022-07-27T01:59:25.571Z,13.22
2022-07-27T02:03:28.591Z,13.22
2022-07-27T02:07:31.755Z,13.14
2022-07-27T02:11:53.859Z,13.04
2022-07-27T02:15:57.341Z,12.91
2022-07-27T02:20:00.466Z,12.91
2022-07-27T02:24:03.596Z,12.81
2022-07-27T02:28:09.111Z,12.73
2022-07-27T02:32:12.780Z,12.67
2022-07-27T02:36:16.554Z,12.65
2022-07-27T02:40:20.391Z,12.55
2022-07-27T02:44:24.913Z,12.38
2022-07-27T02:48:28.037Z,12.37
2022-07-27T02:52:31.070Z,12.28
2022-07-27T02:56:34.244Z,12.25
2022-07-27T03:00:38.792Z,12.18
2022-07-27T03:04:41.989Z,12.14
2022-07-27T03:08:45.044Z,12.08
2022-07-27T03:12:48.134Z,12.02
2022-07-27T03:16:52.511Z,11.92
2022-07-27T03:20:55.692Z,11.87
2022-07-27T03:24:58.817Z,11.80
2022-07-27T03:29:01.911Z,11.64
2022-07-27T03:33:06.375Z,11.58
2022-07-27T03:37:09.711Z,11.56
2022-07-27T03:41:12.729Z,11.47
2022-07-27T03:45:15.956Z,11.45
2022-07-27T03:49:20.626Z,11.47
2022-07-27T03:53:23.849Z,11.44
2022-07-27T03:57:26.907Z,11.37
2022-07-27T04:01:30.287Z,11.34
2022-07-27T04:05:34.848Z,11.31
2022-07-27T04:09:39.520Z,11.45
2022-07-27T04:13:46.719Z,11.37
2022-07-27T04:17:56.265Z,11.32
2022-07-27T04:22:01.663Z,11.32
2022-07-27T04:26:05.038Z,11.44
2022-07-27T04:30:09.974Z,11.50
2022-07-27T04:34:13.025Z,11.48
2022-07-27T04:38:17.394Z,11.51
2022-07-27T04:42:20.490Z,11.57
2022-07-27T04:46:23.756Z,11.65
2022-07-27T04:50:27.157Z,11.65
2022-07-27T04:54:35.867Z,11.75
2022-07-27T04:58:39.096Z,11.80
2022-07-27T05:02:43.636Z,11.93
2022-07-27T05:06:47.148Z,12.09
2022-07-27T05:10:51.561Z,12.25
2022-07-27T05:14:54.777Z,12.43
2022-07-27T05:18:58.159Z,12.54
2022-07-27T05:23:01.401Z,12.67
2022-07-27T05:27:06.742Z,12.87
2022-07-27T05:31:10.180Z,13.02
2022-07-27T05:35:13.635Z,13.07
2022-07-27T05:39:17.063Z,13.15
2022-07-27T05:43:21.749Z,13.26
2022-07-27T05:47:25.047Z,13.40
2022-07-27T05:51:28.073Z,13.61
2022-07-27T05:55:31.217Z,13.68
2022-07-27T05:59:36.653Z,13.86
2022-07-27T06:03:39.744Z,13.90
2022-07-27T06:08:03.346Z,14.14
2022-07-27T06:12:07.345Z,14.27
2022-07-27T06:16:12.042Z,14.45
2022-07-27T06:20:15.199Z,14.67
2022-07-27T06:24:18.616Z,14.68
2022-07-27T06:28:21.732Z,14.88
2022-07-27T06:32:26.187Z,14.89
2022-07-27T06:36:29.180Z,15.02
2022-07-27T06:40:32.321Z,15.07
2022-07-27T06:44:35.379Z,15.25
2022-07-27T06:48:40.321Z,15.55
2022-07-27T06:52:43.804Z,15.57
2022-07-27T06:56:47.218Z,15.60
2022-07-27T07:00:50.597Z,15.76
2022-07-27T07:04:55.112Z,15.96
2022-07-27T07:08:58.250Z,16.00
2022-07-27T07:13:05.801Z,16.11
2022-07-27T07:17:09.060Z,16.25
2022-07-27T07:21:13.476Z,16.70
2022-07-27T07:25:17.170Z,16.75
2022-07-27T07:29:20.276Z,16.53
2022-07-27T07:33:23.376Z,16.64
2022-07-27T07:37:33.491Z,16.81
2022-07-27T07:41:37.633Z,17.24
2022-07-27T07:45:50.026Z,16.97
2022-07-27T07:49:54.781Z,17.06
2022-07-27T07:53:59.328Z,17.61
2022-07-27T07:58:02.573Z,18.11
2022-07-27T08:02:05.747Z,18.58
2022-07-27T08:06:08.952Z,18.68
2022-07-27T08:10:15.176Z,18.66
2022-07-27T08:14:18.311Z,18.03
2022-07-27T08:18:22.167Z,17.97
2022-07-27T08:22:25.461Z,19.71
2022-07-27T08:26:29.862Z,19.43
2022-07-27T08:30:33.722Z,17.81
2022-07-27T08:34:36.978Z,17.51
2022-07-27T08:38:40.047Z,17.82
2022-07-27T08:42:44.930Z,17.70
2022-07-27T08:46:52.948Z,17.92
2022-07-27T08:50:56.644Z,18.11
2022-07-27T08:54:59.725Z,17.76
2022-07-27T08:59:04.425Z,18.01
2022-07-27T09:03:07.649Z,17.98
2022-07-27T09:07:10.747Z,18.12
2022-07-27T09:11:15.583Z,18.02
2022-07-27T09:15:20.099Z,18.38
2022-07-27T09:19:23.249Z,18.47
2022-07-27T09:23:28.239Z,19.08
2022-07-27T09:27:31.862Z,19.18
2022-07-27T09:31:42.989Z,19.51
2022-07-27T09:35:59.940Z,19.72
2022-07-27T09:40:11.812Z,19.22
2022-07-27T09:44:32.510Z,19.22
2022-07-27T09:48:38.267Z,19.67
2022-07-27T09:52:41.458Z,19.51
2022-07-27T09:56:46.206Z,19.37
2022-07-27T10:00:58.555Z,19.56
2022-07-27T10:05:03.050Z,20.82
2022-07-27T10:09:06.202Z,20.23
2022-07-27T10:13:09.419Z,20.19
2022-07-27T10:17:13.791Z,21.32
2022-07-27T10:21:18.938Z,22.85
2022-07-27T10:25:22.839Z,22.33
2022-07-27T10:29:26.560Z,22.93
2022-07-27T10:33:43.900Z,24.97
2022-07-27T10:38:08.036Z,23.57
2022-07-27T10:42:31.479Z,23.44
2022-07-27T10:46:38.624Z,21.17
2022-07-27T10:50:49.165Z,20.24
2022-07-27T10:54:59.562Z,19.94
2022-07-27T10:59:03.207Z,20.05
2022-07-27T11:03:06.791Z,19.78
2022-07-27T11:07:32.074Z,19.68
2022-07-27T11:11:35.023Z,19.69
2022-07-27T11:15:38.246Z,19.37
2022-07-27T11:19:41.363Z,20.16
2022-07-27T11:23:52.403Z,20.63
2022-07-27T11:27:56.985Z,20.07
2022-07-27T11:32:01.222Z,21.04
2022-07-27T11:36:07.380Z,21.71
2022-07-27T11:40:53.331Z,21.03
2022-07-27T11:44:39.966Z,21.34
2022-07-27T11:53:11.896Z,23.23
2022-07-27T11:57:16.968Z,24.38
2022-07-27T12:01:29.548Z,24.85
2022-07-27T12:05:32.634Z,25.15
2022-07-27T12:09:39.096Z,22.65
2022-07-27T12:13:42.731Z,21.30
2022-07-27T12:17:48.182Z,20.30
2022-07-27T12:21:54.585Z,20.46
2022-07-27T12:25:57.635Z,20.63
2022-07-27T12:30:09.438Z,20.60
2022-07-27T12:34:15.173Z,20.98
2022-07-27T12:38:18.813Z,21.07
2022-07-27T12:42:22.099Z,21.15
2022-07-27T12:46:25.364Z,23.20
2022-07-27T12:50:30.187Z,23.33
2022-07-27T12:54:33.316Z,24.66
2022-07-27T12:58:37.391Z,24.07
2022-07-27T13:02:40.695Z,22.18
2022-07-27T13:06:45.412Z,22.72
2022-07-27T13:10:50.407Z,24.86
2022-07-27T13:14:53.642Z,23.17
2022-07-27T13:18:56.912Z,22.16
2022-07-27T13:23:01.399Z,21.80
2022-07-27T13:27:04.799Z,22.15
2022-07-27T13:31:08.623Z,21.82
2022-07-27T13:35:12.770Z,21.84
2022-07-27T13:39:17.272Z,22.14
2022-07-27T13:43:20.535Z,22.06
2022-07-27T13:47:23.655Z,22.11
2022-07-27T13:51:26.676Z,23.57
2022-07-27T13:55:31.260Z,25.37
2022-07-27T13:59:34.317Z,24.95
2022-07-27T14:03:37.869Z,24.07
2022-07-27T14:07:41.724Z,24.93
2022-07-27T14:11:52.710Z,24.11
2022-07-27T14:15:56.560Z,24.77
2022-07-27T14:19:59.749Z,23.69
2022-07-27T14:24:05.771Z,22.99
2022-07-27T14:28:10.473Z,22.50
2022-07-27T14:32:13.588Z,21.63
2022-07-27T14:36:16.693Z,21.96
2022-07-27T14:40:19.849Z,22.42
2022-07-27T14:44:24.426Z,21.96
2022-07-27T14:48:48.874Z,24.40
2022-07-27T14:52:52.247Z,25.28
2022-07-27T14:56:55.425Z,25.59
2022-07-27T15:00:59.962Z,25.97
2022-07-27T15:05:03.051Z,26.92
2022-07-27T15:09:06.452Z,25.02
2022-07-27T15:13:09.707Z,23.03
2022-07-27T15:17:14.209Z,23.38
2022-07-27T15:21:17.774Z,25.69
2022-07-27T15:25:20.884Z,25.37
2022-07-27T15:29:23.992Z,25.32
2022-07-27T15:33:29.496Z,25.57
2022-07-27T15:37:32.572Z,26.21
2022-07-27T15:41:37.236Z,25.29
2022-07-27T15:45:42.341Z,25.82
2022-07-27T15:49:46.855Z,25.46
2022-07-27T15:53:50.106Z,24.08
2022-07-27T15:57:53.313Z,25.41
2022-07-27T16:01:56.517Z,25.02
2022-07-27T16:06:02.533Z,25.39
2022-07-27T16:10:06.574Z,23.32
2022-07-27T16:14:09.697Z,23.56
2022-07-27T16:18:13.040Z,23.43
2022-07-27T16:22:17.558Z,23.01
2022-07-27T16:26:21.418Z,22.52
2022-07-27T16:30:24.548Z,23.78
2022-07-27T16:34:28.721Z,23.75
2022-07-27T16:38:33.268Z,23.66
2022-07-27T16:42:38.163Z,23.73
2022-07-27T16:46:42.652Z,23.40
2022-07-27T16:50:45.820Z,24.94
2022-07-27T16:54:50.855Z,24.10
2022-07-27T16:58:54.001Z,25.16
2022-07-27T17:02:57.398Z,24.18
2022-07-27T17:07:00.574Z,23.40
2022-07-27T17:11:06.497Z,23.23
2022-07-27T17:15:10.711Z,22.54
2022-07-27T17:19:14.702Z,22.45
2022-07-27T17:23:18.006Z,21.86
2022-07-27T17:27:22.860Z,22.06
2022-07-27T17:31:26.530Z,21.98
2022-07-27T17:35:29.716Z,22.73
2022-07-27T17:39:32.792Z,22.76
2022-07-27T17:43:38.831Z,22.46
2022-07-27T17:47:42.008Z,22.90
2022-07-27T17:51:45.149Z,22.11
2022-07-27T17:55:48.182Z,21.54
2022-07-27T17:59:52.580Z,21.36
2022-07-27T18:03:55.764Z,21.16
2022-07-27T18:07:59.101Z,20.72
2022-07-27T18:12:02.137Z,20.37
2022-07-27T18:16:06.749Z,20.24
2022-07-27T18:20:12.293Z,20.39
2022-07-27T18:24:15.725Z,20.65
2022-07-27T18:28:19.337Z,20.78
2022-07-27T18:32:24.441Z,20.85
2022-07-27T18:36:27.909Z,21.17
2022-07-27T18:40:31.069Z,21.30
2022-07-27T18:44:38.848Z,21.11
2022-07-27T18:48:44.484Z,21.22
2022-07-27T18:52:47.611Z,21.18
2022-07-27T18:56:51.047Z,21.15
2022-07-27T19:00:54.458Z,20.93
2022-07-27T19:04:59.679Z,20.38
2022-07-27T19:09:02.899Z,20.05
2022-07-27T19:13:06.082Z,19.66
2022-07-27T19:17:14.606Z,19.41
2022-07-27T19:21:19.575Z,19.08
2022-07-27T19:25:23.772Z,18.84
2022-07-27T19:29:26.864Z,18.52
2022-07-27T19:33:29.968Z,18.22
2022-07-27T19:37:34.844Z,18.05
2022-07-27T19:41:38.162Z,17.82
2022-07-27T19:45:42.310Z,17.78
2022-07-27T19:49:46.279Z,17.38
2022-07-27T19:53:50.862Z,17.14
2022-07-27T19:57:54.336Z,16.98
2022-07-27T20:01:58.087Z,16.73
2022-07-27T20:06:02.315Z,16.55
2022-07-27T20:10:07.623Z,16.32
2022-07-27T20:14:11.456Z,16.03
2022-07-27T20:18:14.801Z,15.89
2022-07-27T20:22:17.805Z,15.77
2022-07-27T20:26:22.379Z,15.85
2022-07-27T20:30:25.967Z,16.06
2022-07-27T20:34:29.280Z,16.07
2022-07-27T20:38:32.494Z,16.14
2022-07-27T20:42:36.963Z,16.22
2022-07-27T20:46:43.558Z,16.15
2022-07-27T20:50:46.780Z,16.08
2022-07-27T20:54:50.581Z,15.87
2022-07-27T20:58:54.976Z,15.70
2022-07-27T21:02:58.133Z,15.56
2022-07-27T21:07:01.234Z,15.44
2022-07-27T21:11:06.212Z,15.38
2022-07-27T21:15:13.493Z,15.32
2022-07-27T21:19:19.463Z,15.24
2022-07-27T21:23:39.879Z,15.12
2022-07-27T21:27:42.950Z,15.11
2022-07-27T21:31:50.799Z,15.15
2022-07-27T21:35:54.209Z,15.25
2022-07-27T21:39:57.518Z,15.39
2022-07-27T21:44:00.794Z,15.35
2022-07-27T21:48:05.805Z,15.27
2022-07-27T21:52:08.950Z,15.28
2022-07-27T21:56:13.661Z,15.35
2022-07-27T22:00:17.752Z,15.34
2022-07-27T22:04:22.244Z,15.38
2022-07-27T22:08:25.292Z,15.34
2022-07-27T22:12:28.641Z,15.31
2022-07-27T22:16:31.760Z,15.34
2022-07-27T22:20:36.543Z,15.39
2022-07-27T22:24:39.679Z,15.42
2022-07-27T22:28:42.758Z,15.38
2022-07-27T22:32:45.787Z,15.34
2022-07-27T22:36:50.182Z,15.33
2022-07-27T22:40:54.516Z,15.31
2022-07-27T22:44:57.560Z,15.19
2022-07-27T22:49:00.634Z,15.11
2022-07-27T22:53:05.092Z,15.12
2022-07-27T22:57:08.815Z,15.05
2022-07-27T23:01:28.418Z,15.00
2022-07-27T23:05:35.110Z,14.96
2022-07-27T23:09:39.668Z,14.98
2022-07-27T23:13:42.793Z,15.01
2022-07-27T23:17:46.036Z,14.98
2022-07-27T23:21:49.284Z,15.08
2022-07-27T23:25:54.394Z,15.02
2022-07-27T23:29:58.296Z,15.09
2022-07-27T23:34:01.374Z,15.15
2022-07-27T23:38:04.682Z,15.10
2022-07-27T23:42:09.473Z,15.17
2022-07-27T23:46:12.568Z,15.25
2022-07-27T23:50:15.783Z,15.40
2022-07-27T23:54:18.886Z,15.47
2022-07-27T23:58:23.363Z,15.50
